Terminal Aerodrome Forecast
Issued by NWS Wilmington, OH

Current Version | Previous Version | Text Only | Print | Product List | Glossary Off
Versions: 1 2 3 4 5 6 7 8 9 10 11 12 13 14 15 16

000
FTUS41 KILN 031700
TAFCMH
TAF
KCMH 031730Z 0318/0418 06007KT P6SM VCSH BKN040
      TEMPO 0318/0322 5SM -SHRA OVC025
     FM040200 02005KT P6SM BKN060
      TEMPO 0408/0412 5SM BR
     FM041400 34006KT P6SM SCT040=

USA.gov is the U.S. government's official web portal to all federal, state and local government web resources and services.